Terminal Aerodrome Forecast
Issued by NWS

Home | Current Version | Previous Version | Text Only | Print | Product List | Glossary On
Versions: 1 2 3 4 5 6 7 8 9 10 11 12 13 14 15 16 17 18
000
FTUS44 KOUN 201808 AAA
TAFPNC
TAF AMD
KPNC 201808Z 2018/2118 20010KT P6SM BKN015
     FM201830 22010KT P6SM SCT250
      TEMPO 2019/2021 BKN012
     FM202200 18006KT P6SM SKC
     FM211000 17009KT P6SM SCT200=

USA.gov is the U.S. government's official web portal to all federal, state and local government web resources and services.